Jacksonville Beach, Florida
Current Conditions -  °F | °C
As of 7:52 AM on Thursday 23 Oct 2014 (Local Time) from KNRB Reporting Station
Few Clouds Few Clouds  
Wind Chill: 62°   Ceiling: Unl
Heat Index: 62°   Visibility: 10mi
Dew Point: 54°   Wind: 6mph
Humidity: 75%   Direction: 330°NNW
Pressure: 30.04"   Gusts: NA
Location:  30.29°N, 81.39°W
Report Text: KNRB 231152Z 33005KT 10SM FEW030 17/12 A3004 RMK AO2 SLP171 T01670122 10172 20161 50012
Loading
Personal Weather Stations






























Interactive Weather Map
Tropical Storm Tracking
New forecast layout! Learn more

10-Day Weather Forecast

Advertisements
Track Severe Weather on mobile